Seifukumaru No.2 — JL6661 — position and weather

sailwx.info

Track history (hours):
 
Tides and Currents Weather Stations Pressure Air Temp Water Temp Dewpoint Dewpoint Depression Visibility Wind Speed Wind Dir Waves Ship Positions

Seifukumaru No.2

Last reported at 2018-Jan-22 03:28 UTC. Time now 2018-Jan-22 03:47 UTC.
Position N 35°04' E 136°51'.

Length 75 m; draft 3.9 m.

Type: Cargo ship. MMSI: 431501654.

Date/timePositionNaut miles runAvg speedWind from/ knotsBaromVisibWave heightAir tempDewpointWater temp
2018-Jan-22 03:28N 35°04' E 136°51'0 0.0
2018-Jan-22 00:13N 35°04' E 136°51'0 0.0
2018-Jan-22 00:00N 35°04' E 136°51'0 0.0
2018-Jan-21 23:30N 35°04' E 136°51'3 5.5
2018-Jan-21 23:01N 35°01' E 136°50'3 1.0
2018-Jan-21 19:51N 34°58' E 136°48'2 6.1
2018-Jan-21 19:30N 34°56' E 136°47'5 9.9
2018-Jan-21 19:00N 34°52' E 136°47'510.1
2018-Jan-21 18:30N 34°47' E 136°48'510.0
2018-Jan-21 18:00N 34°42' E 136°51'510.0
2018-Jan-21 17:30N 34°38' E 136°55'510.0
2018-Jan-21 17:00N 34°35' E 136°59'104 7.6
2018-Jan-21 03:21N 33°48' E 135°06'510.8
2018-Jan-21 02:54N 33°52' E 135°03'4 9.9
2018-Jan-21 02:30N 33°56' E 135°02'510.5
2018-Jan-21 02:01N 34°01' E 135°03'510.5
2018-Jan-21 01:30N 34°06' E 135°03'510.4
2018-Jan-21 01:01N 34°12' E 135°03'5 9.8
2018-Jan-21 00:30N 34°16' E 135°03'5 9.1
2018-Jan-21 00:00N 34°21' E 135°06'5 9.7
2018-Jan-20 23:31N 34°24' E 135°09'510.0
2018-Jan-20 23:00N 34°28' E 135°13'5 9.8
2018-Jan-20 22:30N 34°32' E 135°17'5 9.8
2018-Jan-20 22:01N 34°35' E 135°21'4 8.3
2018-Jan-20 21:31N 34°35' E 135°26'2 0.1
2018-Jan-20 11:02N 34°34' E 135°27'0 0.9
2018-Jan-20 11:01N 34°34' E 135°27'0 0.2
2018-Jan-20 10:30N 34°34' E 135°27'4 7.9
2018-Jan-20 10:00N 34°37' E 135°23'3 6.1
2018-Jan-20 09:30N 34°39' E 135°26'2 0.3
2018-Jan-20 03:10N 34°39' E 135°28'0 0.8
2018-Jan-20 03:00N 34°39' E 135°28'4 8.7
2018-Jan-20 02:31N 34°38' E 135°23'510.9
2018-Jan-20 02:00N 34°34' E 135°18'611.3
2018-Jan-20 01:30N 34°29' E 135°14'611.9
2018-Jan-20 01:00N 34°24' E 135°10'612.2
2018-Jan-20 00:30N 34°20' E 135°05'612.0
2018-Jan-20 00:00N 34°14' E 135°03'611.8
2018-Jan-19 23:31N 34°08' E 135°03'611.4
2018-Jan-19 23:00N 34°02' E 135°02'611.4
2018-Jan-19 22:30N 33°57' E 135°02'611.1
2018-Jan-19 21:58N 33°51' E 135°03'511.2
2018-Jan-19 21:28N 33°46' E 135°08'101 7.8
2018-Jan-19 08:30N 34°39' E 136°52'511.0
2018-Jan-19 08:00N 34°43' E 136°48'611.0
2018-Jan-19 07:28N 34°49' E 136°46'511.3
2018-Jan-19 07:01N 34°54' E 136°46'510.3
2018-Jan-19 06:30N 34°59' E 136°49'5 9.3
2018-Jan-19 06:00N 35°03' E 136°50'0 0.1
2018-Jan-18 23:35N 35°04' E 136°51'0 0.0
2018-Jan-18 23:30N 35°04' E 136°51'0 0.5
2018-Jan-18 23:00N 35°03' E 136°50'4 8.3
2018-Jan-18 22:30N 34°59' E 136°49'1 2.8
2018-Jan-18 22:00N 34°59' E 136°48'0 0.0
2018-Jan-18 13:21N 34°59' E 136°48'0 0.1
2018-Jan-18 13:00N 34°59' E 136°48'2 4.1
2018-Jan-18 12:30N 34°57' E 136°47'5 9.5
2018-Jan-18 12:00N 34°52' E 136°47'5 9.4
2018-Jan-18 11:30N 34°47' E 136°48'5 9.6
2018-Jan-18 11:00N 34°43' E 136°51'510.1
2018-Jan-18 10:30N 34°39' E 136°55'510.2
2018-Jan-18 10:00N 34°35' E 136°59'9 9.3
2018-Jan-18 09:03N 34°33' E 137°09'0 9.8
2018-Jan-18 09:00N 34°33' E 137°10'58 8.9
2018-Jan-18 02:29N 34°40' E 138°20'510.9
2018-Jan-18 02:00N 34°45' E 138°23'510.9
2018-Jan-18 01:30N 34°50' E 138°26'510.5
2018-Jan-18 00:59N 34°54' E 138°29'7 7.0
2018-Jan-18 00:00N 35°01' E 138°30'0 0.1
2018-Jan-17 23:57N 35°01' E 138°30'  
2018-Jan-12 05:28N 33°53' E 135°02'510.7
2018-Jan-12 05:00N 33°58' E 135°01'610.9
2018-Jan-12 04:30N 34°03' E 135°00'510.9
2018-Jan-12 04:00N 34°08' E 134°59'611.1
2018-Jan-12 03:30N 34°14' E 134°59'  
Track history (hours):
 
Tides and Currents Weather Stations Pressure Air Temp Water Temp Dewpoint Dewpoint Depression Visibility Wind Speed Wind Dir Waves Ship Positions

Seifukumaru No.2

Last reported at 2018-Jan-22 03:28 UTC. Time now 2018-Jan-22 03:47 UTC.
Position N 35°04' E 136°51'.

Length 75 m; draft 3.9 m.

Type: Cargo ship. MMSI: 431501654.

Date/timePositionNaut miles runAvg speedWind from/ knotsBaromVisibWave heightAir tempDewpointWater temp
2018-Jan-22 03:28N 35°04' E 136°51'0 0.0
2018-Jan-22 00:13N 35°04' E 136°51'0 0.0
2018-Jan-22 00:00N 35°04' E 136°51'0 0.0
2018-Jan-21 23:30N 35°04' E 136°51'3 5.5
2018-Jan-21 23:01N 35°01' E 136°50'3 1.0
2018-Jan-21 19:51N 34°58' E 136°48'2 6.1
2018-Jan-21 19:30N 34°56' E 136°47'5 9.9
2018-Jan-21 19:00N 34°52' E 136°47'510.1
2018-Jan-21 18:30N 34°47' E 136°48'510.0
2018-Jan-21 18:00N 34°42' E 136°51'510.0
2018-Jan-21 17:30N 34°38' E 136°55'510.0
2018-Jan-21 17:00N 34°35' E 136°59'104 7.6
2018-Jan-21 03:21N 33°48' E 135°06'510.8
2018-Jan-21 02:54N 33°52' E 135°03'4 9.9
2018-Jan-21 02:30N 33°56' E 135°02'510.5
2018-Jan-21 02:01N 34°01' E 135°03'510.5
2018-Jan-21 01:30N 34°06' E 135°03'510.4
2018-Jan-21 01:01N 34°12' E 135°03'5 9.8
2018-Jan-21 00:30N 34°16' E 135°03'5 9.1
2018-Jan-21 00:00N 34°21' E 135°06'5 9.7
2018-Jan-20 23:31N 34°24' E 135°09'510.0
2018-Jan-20 23:00N 34°28' E 135°13'5 9.8
2018-Jan-20 22:30N 34°32' E 135°17'5 9.8
2018-Jan-20 22:01N 34°35' E 135°21'4 8.3
2018-Jan-20 21:31N 34°35' E 135°26'2 0.1
2018-Jan-20 11:02N 34°34' E 135°27'0 0.9
2018-Jan-20 11:01N 34°34' E 135°27'0 0.2
2018-Jan-20 10:30N 34°34' E 135°27'4 7.9
2018-Jan-20 10:00N 34°37' E 135°23'3 6.1
2018-Jan-20 09:30N 34°39' E 135°26'2 0.3
2018-Jan-20 03:10N 34°39' E 135°28'0 0.8
2018-Jan-20 03:00N 34°39' E 135°28'4 8.7
2018-Jan-20 02:31N 34°38' E 135°23'510.9
2018-Jan-20 02:00N 34°34' E 135°18'611.3
2018-Jan-20 01:30N 34°29' E 135°14'611.9
2018-Jan-20 01:00N 34°24' E 135°10'612.2
2018-Jan-20 00:30N 34°20' E 135°05'612.0
2018-Jan-20 00:00N 34°14' E 135°03'611.8
2018-Jan-19 23:31N 34°08' E 135°03'611.4
2018-Jan-19 23:00N 34°02' E 135°02'611.4
2018-Jan-19 22:30N 33°57' E 135°02'611.1
2018-Jan-19 21:58N 33°51' E 135°03'511.2
2018-Jan-19 21:28N 33°46' E 135°08'101 7.8
2018-Jan-19 08:30N 34°39' E 136°52'511.0
2018-Jan-19 08:00N 34°43' E 136°48'611.0
2018-Jan-19 07:28N 34°49' E 136°46'511.3
2018-Jan-19 07:01N 34°54' E 136°46'510.3
2018-Jan-19 06:30N 34°59' E 136°49'5 9.3
2018-Jan-19 06:00N 35°03' E 136°50'0 0.1
2018-Jan-18 23:35N 35°04' E 136°51'0 0.0
2018-Jan-18 23:30N 35°04' E 136°51'0 0.5
2018-Jan-18 23:00N 35°03' E 136°50'4 8.3
2018-Jan-18 22:30N 34°59' E 136°49'1 2.8
2018-Jan-18 22:00N 34°59' E 136°48'0 0.0
2018-Jan-18 13:21N 34°59' E 136°48'0 0.1
2018-Jan-18 13:00N 34°59' E 136°48'2 4.1
2018-Jan-18 12:30N 34°57' E 136°47'5 9.5
2018-Jan-18 12:00N 34°52' E 136°47'5 9.4
2018-Jan-18 11:30N 34°47' E 136°48'5 9.6
2018-Jan-18 11:00N 34°43' E 136°51'510.1
2018-Jan-18 10:30N 34°39' E 136°55'510.2
2018-Jan-18 10:00N 34°35' E 136°59'9 9.3
2018-Jan-18 09:03N 34°33' E 137°09'0 9.8
2018-Jan-18 09:00N 34°33' E 137°10'58 8.9
2018-Jan-18 02:29N 34°40' E 138°20'510.9
2018-Jan-18 02:00N 34°45' E 138°23'510.9
2018-Jan-18 01:30N 34°50' E 138°26'510.5
2018-Jan-18 00:59N 34°54' E 138°29'7 7.0
2018-Jan-18 00:00N 35°01' E 138°30'0 0.1
2018-Jan-17 23:57N 35°01' E 138°30'  
2018-Jan-12 05:28N 33°53' E 135°02'510.7
2018-Jan-12 05:00N 33°58' E 135°01'610.9
2018-Jan-12 04:30N 34°03' E 135°00'510.9
2018-Jan-12 04:00N 34°08' E 134°59'611.1
2018-Jan-12 03:30N 34°14' E 134°59'  

Dump ship's entire track history